Time;durP1;ratioP1;P1;durP2;ratioP2;P2;SDS_P1;SDS_P2;PMS_P1;PMS_P2;Temp;Humidity;BMP_temperature;BMP_pressure;BME280_temperature;BME280_humidity;BME280_pressure;Samples;Min_cycle;Max_cycle;Signal;HPM_P1;HPM_P2
2023/12/22 00:00:49;;;;;;;7.10;6.25;;;;;;;0.44;100.00;62041.56;5091612;28;20292;-81
2023/12/22 00:03:16;;;;;;;11.32;6.97;;;;;;;0.47;100.00;62046.63;5091050;28;20197;-82
2023/12/22 00:05:43;;;;;;;11.20;7.85;;;;;;;0.52;100.00;62049.75;5095726;28;20220;-81
2023/12/22 00:08:10;;;;;;;13.77;8.48;;;;;;;0.54;100.00;62056.81;5092021;28;20196;-79
2023/12/22 00:10:37;;;;;;;11.35;7.95;;;;;;;0.57;100.00;62054.88;5098989;28;20283;-80
2023/12/22 00:13:06;;;;;;;10.55;7.03;;;;;;;0.69;100.00;62069.19;5110245;28;20208;-79
2023/12/22 00:15:33;;;;;;;12.88;8.05;;;;;;;0.63;100.00;62060.53;5092995;28;20220;-81
2023/12/22 00:18:00;;;;;;;13.30;7.82;;;;;;;0.66;100.00;62061.09;5098080;28;20199;-81
2023/12/22 00:20:27;;;;;;;14.02;8.73;;;;;;;0.56;100.00;62058.88;5105039;28;20258;-81
2023/12/22 00:22:54;;;;;;;14.75;8.68;;;;;;;0.60;100.00;62059.97;5098142;28;20223;-79
2023/12/22 00:25:20;;;;;;;12.38;7.80;;;;;;;0.71;100.00;62069.25;5111650;28;20223;-80
2023/12/22 00:27:47;;;;;;;10.23;7.72;;;;;;;0.73;100.00;62076.31;5111089;28;20188;-81
2023/12/22 00:30:16;;;;;;;10.32;7.65;;;;;;;0.79;100.00;62079.44;5098978;28;20283;-79
2023/12/22 00:32:43;;;;;;;13.70;7.47;;;;;;;0.90;100.00;62088.72;5094628;28;20283;-78
2023/12/22 00:35:10;;;;;;;8.93;6.97;;;;;;;1.00;100.00;62098.97;5089523;28;20283;-80
2023/12/22 00:37:37;;;;;;;11.15;8.10;;;;;;;1.01;100.00;62102.53;5103510;28;20382;-79
2023/12/22 00:40:07;;;;;;;8.80;7.43;;;;;;;0.97;100.00;62093.41;5100232;28;20220;-81
2023/12/22 00:42:34;;;;;;;8.45;7.15;;;;;;;1.00;100.00;62096.47;5110312;28;20211;-81
2023/12/22 00:45:00;;;;;;;9.68;6.68;;;;;;;1.10;100.00;62111.25;5095809;28;20221;-79
2023/12/22 00:47:29;;;;;;;8.52;7.05;;;;;;;1.18;100.00;62114.94;5090757;28;20199;-80
2023/12/22 00:49:56;;;;;;;11.07;7.20;;;;;;;1.25;100.00;62119.09;5091415;28;20242;-81
2023/12/22 00:52:23;;;;;;;9.95;7.25;;;;;;;1.23;100.00;62124.06;5097433;28;20224;-80
2023/12/22 00:54:50;;;;;;;12.63;8.38;;;;;;;1.30;100.00;62131.25;5101464;28;20299;-80
2023/12/22 00:57:17;;;;;;;11.35;8.13;;;;;;;1.30;100.00;62128.72;5108450;28;20196;-78
2023/12/22 00:59:47;;;;;;;9.07;8.00;;;;;;;1.25;100.00;62128.63;5111248;28;20277;-78
2023/12/22 01:02:14;;;;;;;14.52;8.98;;;;;;;1.27;100.00;62128.16;5092066;28;20197;-79
2023/12/22 01:04:42;;;;;;;11.68;8.75;;;;;;;1.25;100.00;62126.63;5089549;28;20283;-78
2023/12/22 01:07:10;;;;;;;12.80;8.38;;;;;;;1.22;100.00;62123.03;5095574;28;20196;-79
2023/12/22 01:09:37;;;;;;;12.13;8.50;;;;;;;1.22;100.00;62123.56;5089768;28;20220;-79
2023/12/22 01:12:04;;;;;;;12.60;7.88;;;;;;;1.12;100.00;62113.28;5091919;28;20224;-79
2023/12/22 01:14:31;;;;;;;15.45;8.45;;;;;;;1.17;100.00;62121.44;5089171;28;20517;-79
2023/12/22 01:17:00;;;;;;;15.02;9.27;;;;;;;1.25;100.00;62128.63;5099737;28;20374;-80
2023/12/22 01:19:27;;;;;;;15.20;8.93;;;;;;;1.31;100.00;62132.78;5098919;28;20430;-80
2023/12/22 01:21:55;;;;;;;12.68;9.30;;;;;;;1.30;100.00;62131.75;5094828;28;20397;-78
2023/12/22 01:24:22;;;;;;;16.27;11.15;;;;;;;1.37;100.00;62138.94;5088746;28;20220;-78
2023/12/22 01:26:49;;;;;;;17.75;9.93;;;;;;;1.41;100.00;62145.03;5089273;28;20205;-80
2023/12/22 01:29:16;;;;;;;18.15;9.98;;;;;;;1.45;100.00;62144.63;5088737;28;20208;-81
2023/12/22 01:31:43;;;;;;;17.58;10.70;;;;;;;1.47;100.00;62154.22;5088923;28;20235;-80
2023/12/22 01:34:10;;;;;;;17.25;10.90;;;;;;;1.56;100.00;62160.94;5088313;28;20220;-79
2023/12/22 01:36:37;;;;;;;16.63;10.45;;;;;;;1.52;100.00;62151.31;5105238;28;20193;-79
2023/12/22 01:39:05;;;;;;;16.45;9.23;;;;;;;1.45;100.00;62147.13;5091457;28;20284;-78
2023/12/22 01:41:32;;;;;;;14.38;9.70;;;;;;;1.53;100.00;62157.88;5088829;28;20200;-80
2023/12/22 01:43:59;;;;;;;14.80;9.98;;;;;;;1.56;100.00;62162.94;5104332;28;20255;-78
2023/12/22 01:46:26;;;;;;;13.93;9.13;;;;;;;1.54;100.00;62153.88;5090769;28;20265;-79
2023/12/22 01:48:53;;;;;;;14.90;10.45;;;;;;;1.60;100.00;62164.53;5088514;28;20263;-79
2023/12/22 01:51:20;;;;;;;13.00;8.65;;;;;;;1.62;100.00;62166.59;5093165;28;20235;-78
2023/12/22 01:53:47;;;;;;;14.63;10.73;;;;;;;1.44;100.00;62143.09;5092162;28;20212;-79
2023/12/22 01:56:15;;;;;;;15.93;10.07;;;;;;;1.40;100.00;62142.00;5113134;28;20196;-78
2023/12/22 01:58:42;;;;;;;18.42;10.85;;;;;;;1.42;100.00;62141.03;5109168;28;20192;-79
2023/12/22 02:01:09;;;;;;;15.13;9.60;;;;;;;1.42;100.00;62141.56;5102205;28;20196;-78
2023/12/22 02:03:36;;;;;;;18.48;9.50;;;;;;;1.46;100.00;62147.66;5108967;28;20188;-78
2023/12/22 02:06:04;;;;;;;14.25;8.45;;;;;;;1.46;100.00;62145.66;5108412;28;20232;-80
2023/12/22 02:08:32;;;;;;;11.48;8.43;;;;;;;1.50;100.00;62152.28;5104854;28;20268;-80
2023/12/22 02:10:59;;;;;;;12.35;8.45;;;;;;;1.50;100.00;62154.78;5103999;28;20205;-78
2023/12/22 02:13:47;;;;;;;11.43;8.02;;;;;;;1.56;100.00;62155.94;5112898;28;20200;-80
2023/12/22 02:16:28;;;;;;;14.32;7.35;;;;;;;1.57;100.00;62159.44;5116234;28;20267;-77
2023/12/22 02:18:56;;;;;;;14.57;7.68;;;;;;;1.47;100.00;62151.69;5102875;28;20540;-78
2023/12/22 02:21:23;;;;;;;12.35;7.90;;;;;;;1.59;100.00;62161.50;5092380;28;20227;-78
2023/12/22 02:23:51;;;;;;;13.80;8.98;;;;;;;1.67;100.00;62169.72;5098314;28;20192;-78
2023/12/22 02:26:21;;;;;;;15.65;8.68;;;;;;;1.62;100.00;62161.56;5106516;28;20195;-77
2023/12/22 02:28:48;;;;;;;12.40;8.82;;;;;;;1.66;100.00;62166.19;5104901;28;20210;-78
2023/12/22 02:31:18;;;;;;;11.85;7.85;;;;;;;1.67;100.00;62169.22;5090474;28;20489;-77
2023/12/22 02:33:45;;;;;;;11.88;9.02;;;;;;;1.73;100.00;62175.88;5086918;28;20185;-78
2023/12/22 02:36:12;;;;;;;10.27;7.80;;;;;;;1.73;100.00;62180.38;5091377;28;20215;-78
2023/12/22 02:38:39;;;;;;;13.65;8.10;;;;;;;1.65;100.00;62167.69;5094445;28;20258;-78
2023/12/22 02:41:07;;;;;;;12.15;8.80;;;;;;;1.76;100.00;62181.47;5086210;28;20196;-77
2023/12/22 02:43:35;;;;;;;12.93;8.93;;;;;;;1.72;100.00;62169.31;5104494;28;20196;-78
2023/12/22 02:46:02;;;;;;;17.20;8.75;;;;;;;1.76;100.00;62183.97;5103678;28;20523;-78
2023/12/22 02:48:29;;;;;;;14.57;9.30;;;;;;;1.76;100.00;62180.97;5091745;28;20249;-76
2023/12/22 02:50:56;;;;;;;16.42;9.90;;;;;;;1.76;100.00;62178.97;5105323;28;20269;-77
2023/12/22 02:53:23;;;;;;;15.55;9.52;;;;;;;1.78;100.00;62178.50;5105809;28;20303;-78
2023/12/22 02:55:50;;;;;;;14.80;9.18;;;;;;;1.84;100.00;62187.19;5087257;28;20221;-78
2023/12/22 02:58:19;;;;;;;14.35;9.68;;;;;;;1.80;100.00;62180.03;5090060;28;20196;-78
2023/12/22 03:00:46;;;;;;;16.98;10.73;;;;;;;1.82;100.00;62187.13;5107948;28;20231;-78
2023/12/22 03:03:14;;;;;;;17.70;10.60;;;;;;;1.88;100.00;62193.78;5090196;28;20211;-80
2023/12/22 03:05:41;;;;;;;11.32;8.63;;;;;;;1.92;100.00;62194.88;5090123;28;20378;-77
2023/12/22 03:08:08;;;;;;;13.95;8.77;;;;;;;1.88;100.00;62188.25;5096802;28;20259;-77
2023/12/22 03:10:34;;;;;;;14.20;8.98;;;;;;;1.99;100.00;62204.56;5089542;28;20272;-77
2023/12/22 03:13:01;;;;;;;20.27;8.93;;;;;;;1.93;100.00;62198.91;5108318;28;20421;-77
2023/12/22 03:15:30;;;;;;;10.77;8.00;;;;;;;1.96;100.00;62199.50;5120294;28;20227;-77
2023/12/22 03:17:57;;;;;;;13.57;8.93;;;;;;;2.02;100.00;62205.66;5100219;28;20197;-77
2023/12/22 03:20:24;;;;;;;14.55;9.55;;;;;;;1.91;100.00;62191.34;5091826;28;20220;-77
2023/12/22 03:22:51;;;;;;;13.73;9.45;;;;;;;1.90;100.00;62195.31;5100254;28;20200;-77
2023/12/22 03:25:17;;;;;;;15.45;9.60;;;;;;;1.99;100.00;62205.09;5087078;28;20240;-79
2023/12/22 03:27:44;;;;;;;16.55;10.27;;;;;;;1.95;100.00;62198.47;5085834;28;20203;-77
2023/12/22 03:30:12;;;;;;;13.70;9.88;;;;;;;2.05;100.00;62206.22;5089641;28;20225;-77
2023/12/22 03:32:40;;;;;;;13.07;9.75;;;;;;;1.84;100.00;62187.19;5092171;28;20228;-77
2023/12/22 03:35:07;;;;;;;17.40;10.25;;;;;;;1.88;100.00;62188.75;5090309;28;20495;-77
2023/12/22 03:37:34;;;;;;;18.33;10.30;;;;;;;1.98;100.00;62208.56;5088781;28;20192;-77
2023/12/22 03:40:01;;;;;;;12.93;9.90;;;;;;;2.02;100.00;62205.16;5100967;28;20220;-77
2023/12/22 03:42:28;;;;;;;14.93;10.25;;;;;;;2.04;100.00;62205.19;5108843;28;20382;-76
2023/12/22 03:44:55;;;;;;;15.77;10.18;;;;;;;1.90;100.00;62195.84;5107428;28;20211;-77
2023/12/22 03:47:22;;;;;;;22.15;11.55;;;;;;;1.94;100.00;62196.94;5107089;28;21009;-76
2023/12/22 03:49:50;;;;;;;15.90;10.27;;;;;;;1.96;100.00;62202.00;5088393;28;20231;-77
2023/12/22 03:52:17;;;;;;;16.73;9.73;;;;;;;2.03;100.00;62206.69;5089870;28;20232;-76
2023/12/22 03:54:44;;;;;;;21.17;11.80;;;;;;;2.06;100.00;62207.25;5098061;28;20247;-77
2023/12/22 03:57:11;;;;;;;14.15;10.00;;;;;;;2.05;100.00;62213.75;5095175;28;20209;-77
2023/12/22 03:59:38;;;;;;;21.30;14.13;;;;;;;1.79;100.00;62182.06;5087540;28;20227;-78
2023/12/22 04:02:05;;;;;;;15.68;10.43;;;;;;;1.85;100.00;62190.19;5089727;28;20223;-77
2023/12/22 04:04:32;;;;;;;16.63;10.45;;;;;;;1.87;100.00;62190.25;5095052;28;20258;-76
2023/12/22 04:07:01;;;;;;;14.20;10.95;;;;;;;1.97;100.00;62203.03;5094969;28;20539;-77
2023/12/22 04:09:27;;;;;;;15.60;10.52;;;;;;;2.00;100.00;62211.13;5105717;28;20226;-76
2023/12/22 04:11:54;;;;;;;16.83;10.32;;;;;;;2.04;100.00;62209.69;5107244;28;20246;-78
2023/12/22 04:14:21;;;;;;;17.38;10.27;;;;;;;2.12;100.00;62215.91;5104614;28;20662;-77
2023/12/22 04:16:48;;;;;;;13.70;10.30;;;;;;;2.12;100.00;62217.94;5093040;28;20212;-77
2023/12/22 04:19:15;;;;;;;14.32;9.43;;;;;;;2.16;100.00;62217.00;5097549;28;20234;-77
2023/12/22 04:21:42;;;;;;;15.60;9.85;;;;;;;2.27;100.00;62236.34;5093375;28;20485;-77
2023/12/22 04:24:10;;;;;;;17.48;9.75;;;;;;;2.19;100.00;62217.59;5088160;28;20216;-77
2023/12/22 04:26:37;;;;;;;14.60;9.60;;;;;;;2.18;100.00;62224.59;5096341;28;20192;-77
2023/12/22 04:29:04;;;;;;;17.48;10.30;;;;;;;2.24;100.00;62227.75;5104836;28;20243;-77
2023/12/22 04:31:31;;;;;;;19.48;10.43;;;;;;;2.32;100.00;62238.47;5097445;28;20393;-76
2023/12/22 04:33:58;;;;;;;13.07;9.27;;;;;;;2.35;100.00;62247.09;5094363;28;20238;-78
2023/12/22 04:36:25;;;;;;;16.05;9.95;;;;;;;2.30;100.00;62228.88;5103913;28;20196;-77
2023/12/22 04:38:52;;;;;;;13.32;9.95;;;;;;;2.17;100.00;62221.06;5100613;28;20255;-76
2023/12/22 04:41:20;;;;;;;13.52;9.18;;;;;;;2.02;100.00;62205.66;5089975;28;20193;-77
2023/12/22 04:43:47;;;;;;;15.65;9.73;;;;;;;2.06;100.00;62207.25;5090723;28;20212;-77
2023/12/22 04:46:14;;;;;;;13.10;9.50;;;;;;;2.14;100.00;62214.97;5097835;28;20428;-77
2023/12/22 04:48:41;;;;;;;16.13;10.40;;;;;;;2.11;100.00;62219.41;5092760;28;20204;-77
2023/12/22 04:51:08;;;;;;;16.83;10.20;;;;;;;2.10;100.00;62213.34;5102925;28;20212;-77
2023/12/22 04:53:36;;;;;;;12.93;9.48;;;;;;;2.06;100.00;62209.75;5102531;28;20232;-78
2023/12/22 04:56:03;;;;;;;15.43;10.30;;;;;;;2.14;100.00;62217.47;5102382;28;20255;-77
2023/12/22 04:58:31;;;;;;;15.80;10.80;;;;;;;2.06;100.00;62217.28;5102116;28;20201;-77
2023/12/22 05:00:59;;;;;;;12.90;9.75;;;;;;;2.13;100.00;62216.97;5090843;28;20200;-77
2023/12/22 05:03:26;;;;;;;16.73;10.27;;;;;;;2.24;100.00;62223.22;5102534;28;20363;-78
2023/12/22 05:05:53;;;;;;;17.27;10.20;;;;;;;2.32;100.00;62230.94;5102189;28;20219;-78
2023/12/22 05:08:19;;;;;;;15.07;10.82;;;;;;;2.32;100.00;62241.50;5085939;28;20204;-76
2023/12/22 05:10:47;;;;;;;14.90;11.18;;;;;;;2.37;100.00;62241.09;5097401;28;20431;-77
2023/12/22 05:13:13;;;;;;;16.10;10.80;;;;;;;2.36;100.00;62240.06;5097569;28;20428;-80
2023/12/22 05:15:42;;;;;;;18.88;11.13;;;;;;;2.32;100.00;62235.94;5090781;28;20532;-77
2023/12/22 05:18:09;;;;;;;20.02;11.32;;;;;;;2.46;100.00;62252.31;5094711;28;20196;-78
2023/12/22 05:20:36;;;;;;;17.42;11.65;;;;;;;2.54;100.00;62256.03;5098052;28;20247;-78
2023/12/22 05:23:03;;;;;;;16.23;11.25;;;;;;;2.59;100.00;62266.19;5092190;28;20208;-78
2023/12/22 05:25:30;;;;;;;16.15;10.55;;;;;;;2.44;100.00;62250.78;5094879;28;20212;-77
2023/12/22 05:27:57;;;;;;;14.63;10.13;;;;;;;2.36;100.00;62242.56;5093132;28;20204;-78
2023/12/22 05:30:24;;;;;;;19.50;11.52;;;;;;;2.39;100.00;62243.13;5097196;28;20223;-77
2023/12/22 05:32:54;;;;;;;16.90;10.88;;;;;;;2.11;100.00;62217.41;5088163;28;20369;-77
2023/12/22 05:35:21;;;;;;;17.52;10.65;;;;;;;1.99;100.00;62199.53;5095575;28;20236;-77
2023/12/22 05:37:48;;;;;;;16.83;11.15;;;;;;;2.07;100.00;62205.25;5093602;28;20203;-77
2023/12/22 05:40:15;;;;;;;20.77;12.05;;;;;;;2.19;100.00;62223.09;5085035;28;20236;-77
2023/12/22 05:42:42;;;;;;;15.80;10.90;;;;;;;2.19;100.00;62225.13;5099181;28;20256;-77
2023/12/22 05:45:11;;;;;;;19.23;9.57;;;;;;;2.25;100.00;62223.72;5092714;28;20222;-76
2023/12/22 05:47:37;;;;;;;14.90;10.18;;;;;;;2.26;100.00;62227.28;5088883;28;20196;-77
2023/12/22 05:50:07;;;;;;;13.02;9.75;;;;;;;2.21;100.00;62227.16;5105288;28;20243;-77
2023/12/22 05:52:34;;;;;;;13.23;10.13;;;;;;;2.32;100.00;62240.97;5097255;28;20223;-78
2023/12/22 05:55:01;;;;;;;13.05;10.10;;;;;;;2.18;100.00;62224.06;5093351;28;20231;-77
2023/12/22 05:57:28;;;;;;;14.05;9.45;;;;;;;2.24;100.00;62225.22;5099879;28;20266;-78
2023/12/22 05:59:55;;;;;;;19.52;11.68;;;;;;;2.13;100.00;62216.44;5104430;28;20225;-77
2023/12/22 06:02:21;;;;;;;13.77;10.30;;;;;;;2.18;100.00;62221.56;5086403;28;20193;-78
2023/12/22 06:04:49;;;;;;;14.65;10.75;;;;;;;2.25;100.00;62228.75;5094984;28;20235;-77
2023/12/22 06:07:19;;;;;;;13.05;10.10;;;;;;;2.29;100.00;62232.88;5102768;28;20211;-77
2023/12/22 06:09:46;;;;;;;13.45;9.77;;;;;;;2.36;100.00;62240.56;5085488;28;20242;-77
2023/12/22 06:12:14;;;;;;;15.57;10.30;;;;;;;2.46;100.00;62252.31;5085168;28;20272;-77
2023/12/22 06:14:40;;;;;;;13.52;9.50;;;;;;;2.46;100.00;62255.34;5096832;28;20219;-77
2023/12/22 06:17:07;;;;;;;12.85;9.18;;;;;;;2.46;100.00;62252.31;5109221;28;20208;-77
2023/12/22 06:19:36;;;;;;;14.52;8.85;;;;;;;2.49;100.00;62255.41;5099791;28;20220;-78
2023/12/22 06:22:03;;;;;;;13.05;9.05;;;;;;;2.52;100.00;62261.00;5100585;28;20268;-77
2023/12/22 06:24:31;;;;;;;15.85;10.13;;;;;;;2.51;100.00;62257.47;5084270;28;20244;-77
2023/12/22 06:26:58;;;;;;;12.98;8.70;;;;;;;2.56;100.00;62258.09;5089043;28;20207;-77
2023/12/22 06:29:25;;;;;;;14.65;8.90;;;;;;;2.62;100.00;62263.75;5091152;28;20219;-77
2023/12/22 06:31:52;;;;;;;17.45;9.43;;;;;;;2.43;100.00;62249.75;5098870;28;20307;-77
2023/12/22 06:34:19;;;;;;;14.73;10.23;;;;;;;2.34;100.00;62240.53;5087839;28;20282;-77
2023/12/22 06:36:46;;;;;;;15.80;10.32;;;;;;;2.51;100.00;62252.94;5088978;28;20244;-77
2023/12/22 06:39:13;;;;;;;13.77;10.82;;;;;;;2.38;100.00;62242.13;5087126;28;20292;-77
2023/12/22 06:41:41;;;;;;;16.95;10.48;;;;;;;2.11;100.00;62216.88;5097194;28;20206;-78
2023/12/22 06:44:10;;;;;;;19.67;11.18;;;;;;;2.22;100.00;62228.72;5106224;28;20226;-78
2023/12/22 06:46:37;;;;;;;15.48;11.23;;;;;;;2.33;100.00;62239.47;5108166;28;20192;-77
2023/12/22 06:49:04;;;;;;;15.45;10.82;;;;;;;2.38;100.00;62245.13;5092812;28;20262;-76
2023/12/22 06:51:33;;;;;;;12.25;10.05;;;;;;;2.45;100.00;62248.78;5091495;28;20263;-77
2023/12/22 06:54:00;;;;;;;15.48;10.45;;;;;;;2.40;100.00;62244.16;5095948;28;20288;-76
2023/12/22 06:56:28;;;;;;;13.82;9.73;;;;;;;2.48;100.00;62249.88;5085920;28;20218;-77
2023/12/22 06:58:57;;;;;;;12.98;10.02;;;;;;;2.59;100.00;62260.66;5083400;28;20232;-77
2023/12/22 07:01:26;;;;;;;13.77;9.18;;;;;;;2.58;100.00;62265.16;5087736;28;20254;-76
2023/12/22 07:03:53;;;;;;;11.88;8.73;;;;;;;2.67;100.00;62271.38;5089259;28;20216;-78
2023/12/22 07:06:21;;;;;;;13.07;9.75;;;;;;;2.69;100.00;62276.47;5091458;28;20197;-78
2023/12/22 07:08:58;;;;;;;15.00;9.45;;;;;;;2.72;100.00;62277.03;5094660;28;20205;-77
2023/12/22 07:11:25;;;;;;;12.82;9.73;;;;;;;2.75;100.00;62279.59;5099225;28;20191;-76
2023/12/22 07:13:52;;;;;;;14.13;9.70;;;;;;;2.85;100.00;62292.38;5099612;28;20227;-77
2023/12/22 07:16:20;;;;;;;11.95;9.15;;;;;;;2.88;100.00;62292.97;5099398;28;20197;-76
2023/12/22 07:18:47;;;;;;;11.75;9.68;;;;;;;3.00;100.00;62305.81;5103701;28;20194;-77
2023/12/22 07:21:17;;;;;;;14.63;10.60;;;;;;;2.92;100.00;62297.59;5106718;28;20210;-78
2023/12/22 07:23:44;;;;;;;16.27;11.73;;;;;;;3.03;100.00;62311.41;5096496;28;20408;-76
2023/12/22 07:26:11;;;;;;;15.38;11.50;;;;;;;3.16;100.00;62329.81;5091631;28;20196;-78
2023/12/22 07:28:38;;;;;;;16.67;11.65;;;;;;;3.14;100.00;62322.72;5104649;28;20208;-77
2023/12/22 07:31:06;;;;;;;15.45;10.63;;;;;;;3.05;100.00;62312.94;5105566;28;20200;-77
2023/12/22 07:33:34;;;;;;;17.80;11.13;;;;;;;3.18;100.00;62323.78;5092436;28;20489;-77
2023/12/22 07:36:01;;;;;;;15.18;11.45;;;;;;;3.19;100.00;62322.81;5095966;28;20243;-78
2023/12/22 07:38:28;;;;;;;18.65;11.85;;;;;;;3.11;100.00;62314.59;5098107;28;20196;-77
2023/12/22 07:40:55;;;;;;;18.80;11.20;;;;;;;3.23;100.00;62328.94;5086552;28;20269;-75
2023/12/22 07:43:22;;;;;;;15.45;11.55;;;;;;;3.16;100.00;62319.22;5111468;28;20207;-75
2023/12/22 07:45:50;;;;;;;16.42;10.43;;;;;;;3.17;100.00;62322.78;5107796;28;20216;-75
2023/12/22 07:48:17;;;;;;;14.25;9.85;;;;;;;3.16;100.00;62319.22;5102712;28;20197;-75
2023/12/22 07:50:46;;;;;;;11.23;8.85;;;;;;;3.16;100.00;62324.25;5108577;28;20220;-76
2023/12/22 07:53:13;;;;;;;19.40;12.95;;;;;;;3.15;100.00;62315.69;5098040;28;20227;-76
2023/12/22 07:55:40;;;;;;;13.23;10.80;;;;;;;3.19;100.00;62327.84;5101783;28;20220;-76
2023/12/22 07:58:07;;;;;;;14.38;10.88;;;;;;;3.03;100.00;62311.41;5105688;28;20443;-76
2023/12/22 08:00:34;;;;;;;14.10;10.73;;;;;;;2.99;100.00;62307.28;5103684;28;20214;-77
2023/12/22 08:03:01;;;;;;;16.38;10.02;;;;;;;3.21;100.00;62324.88;5107561;28;20198;-77
2023/12/22 08:05:29;;;;;;;16.95;12.05;;;;;;;3.32;100.00;62340.69;5108702;28;20216;-77
2023/12/22 08:07:57;;;;;;;15.18;10.95;;;;;;;3.39;100.00;62348.41;5105945;28;20200;-77
2023/12/22 08:10:24;;;;;;;14.27;10.80;;;;;;;3.40;100.00;62349.44;5106928;28;20341;-77
2023/12/22 08:12:51;;;;;;;19.70;11.65;;;;;;;3.49;100.00;62353.66;5104157;28;20204;-77
2023/12/22 08:15:18;;;;;;;19.67;10.98;;;;;;;3.75;100.00;62387.44;5096017;28;20253;-77
2023/12/22 08:17:48;;;;;;;11.32;9.77;;;;;;;3.53;100.00;62362.81;5106823;28;20203;-77
2023/12/22 08:20:19;;;;;;;12.13;9.82;;;;;;;3.48;100.00;62357.69;5098201;28;20245;-76
2023/12/22 08:22:46;;;;;;;11.20;8.88;;;;;;;3.69;100.00;62373.19;5103153;28;20180;-76
2023/12/22 08:25:14;;;;;;;16.45;9.50;;;;;;;3.65;100.00;62371.59;5103666;28;20225;-76
2023/12/22 08:27:41;;;;;;;14.90;9.77;;;;;;;3.72;100.00;62384.34;5101745;28;20493;-77
2023/12/22 08:30:09;;;;;;;13.77;9.38;;;;;;;3.87;100.00;62394.75;5106440;28;20228;-76
2023/12/22 08:32:36;;;;;;;16.10;11.13;;;;;;;3.89;100.00;62396.81;5096042;28;20203;-76
2023/12/22 08:35:04;;;;;;;14.57;10.15;;;;;;;3.84;100.00;62396.69;5104504;28;20247;-77
2023/12/22 08:37:31;;;;;;;12.68;10.15;;;;;;;3.86;100.00;62388.16;5100741;28;20196;-76
2023/12/22 08:39:57;;;;;;;11.43;9.18;;;;;;;3.66;100.00;62370.63;5104420;28;20232;-77
2023/12/22 08:42:26;;;;;;;10.88;9.13;;;;;;;3.70;100.00;62379.25;5103329;28;20196;-78
2023/12/22 08:44:52;;;;;;;14.52;10.13;;;;;;;3.75;100.00;62377.38;5086687;28;20525;-77
2023/12/22 08:47:19;;;;;;;19.80;12.07;;;;;;;3.85;100.00;62397.22;5091720;28;20239;-77
2023/12/22 08:49:46;;;;;;;12.05;9.13;;;;;;;3.89;100.00;62396.28;5091584;28;20295;-78
2023/12/22 08:52:13;;;;;;;12.70;9.68;;;;;;;3.83;100.00;62388.09;5096314;28;20219;-78
2023/12/22 08:54:40;;;;;;;12.30;9.48;;;;;;;3.90;100.00;62397.81;5092035;28;20278;-77
2023/12/22 08:57:07;;;;;;;13.98;10.00;;;;;;;3.97;100.00;62399.50;5093510;28;20197;-78
2023/12/22 08:59:35;;;;;;;15.15;10.77;;;;;;;4.01;100.00;62408.63;5091720;28;20250;-78
2023/12/22 09:02:02;;;;;;;16.70;11.45;;;;;;;4.05;100.00;62413.28;5094685;28;20204;-79
2023/12/22 09:04:29;;;;;;;24.40;14.75;;;;;;;4.14;100.00;62422.50;5097135;28;20563;-78
2023/12/22 09:06:56;;;;;;;18.33;13.30;;;;;;;4.08;100.00;62410.78;5105717;28;20195;-78
2023/12/22 09:09:24;;;;;;;14.48;10.27;;;;;;;3.87;100.00;62394.22;5102644;28;20220;-79
2023/12/22 09:11:51;;;;;;;16.25;11.90;;;;;;;4.00;100.00;62408.13;5101356;28;20199;-78
2023/12/22 09:14:18;;;;;;;16.08;10.90;;;;;;;4.05;100.00;62417.78;5086158;28;20236;-79
2023/12/22 09:16:47;;;;;;;15.68;10.35;;;;;;;4.03;100.00;62410.69;5088779;28;20193;-78
2023/12/22 09:19:14;;;;;;;12.98;10.68;;;;;;;4.13;100.00;62421.50;5105228;28;20220;-78
2023/12/22 09:21:41;;;;;;;14.15;9.77;;;;;;;4.01;100.00;62411.16;5108655;28;20267;-80
2023/12/22 09:24:24;;;;;;;21.70;11.68;;;;;;;4.13;100.00;62418.97;5095002;28;20224;-79
2023/12/22 09:26:52;;;;;;;13.82;10.55;;;;;;;4.31;100.00;62442.53;5091145;28;20189;-79
2023/12/22 09:29:19;;;;;;;15.68;11.77;;;;;;;4.43;100.00;62456.88;5086963;28;20216;-80
2023/12/22 09:31:47;;;;;;;15.57;11.85;;;;;;;4.51;100.00;62457.56;5090571;28;20256;-79
2023/12/22 09:34:14;;;;;;;14.23;10.95;;;;;;;4.57;100.00;62466.75;5093849;28;20236;-79
2023/12/22 09:36:41;;;;;;;13.77;10.70;;;;;;;4.41;100.00;62452.31;5087691;28;20201;-80
2023/12/22 09:39:08;;;;;;;17.13;11.15;;;;;;;4.37;100.00;62445.66;5094334;28;20216;-79
2023/12/22 09:41:36;;;;;;;14.90;11.05;;;;;;;4.49;100.00;62458.00;5109022;28;20267;-79
2023/12/22 09:44:03;;;;;;;17.23;10.52;;;;;;;4.26;100.00;62434.84;5110975;28;20294;-80
2023/12/22 09:46:29;;;;;;;14.48;11.20;;;;;;;4.44;100.00;62453.38;5107147;28;20196;-78
2023/12/22 09:48:58;;;;;;;15.23;10.15;;;;;;;4.55;100.00;62467.25;5094594;28;20216;-79
2023/12/22 09:51:25;;;;;;;16.33;9.27;;;;;;;4.77;100.00;62486.84;5089842;28;20220;-79
2023/12/22 09:53:52;;;;;;;13.05;9.52;;;;;;;4.87;100.00;62499.66;5091365;28;20238;-79
2023/12/22 09:56:20;;;;;;;13.75;10.23;;;;;;;4.94;100.00;62501.81;5106498;28;20339;-78
2023/12/22 09:58:47;;;;;;;14.95;10.50;;;;;;;5.12;100.00;62525.41;5106810;28;20200;-79
2023/12/22 10:01:13;;;;;;;30.40;19.33;;;;;;;5.02;100.00;62515.09;5108905;28;20242;-79
2023/12/22 10:03:40;;;;;;;19.08;12.40;;;;;;;5.02;100.00;62514.59;5107005;28;20200;-78
2023/12/22 10:06:09;;;;;;;28.58;21.15;;;;;;;5.06;100.00;62514.16;5107350;28;20214;-79
2023/12/22 10:08:36;;;;;;;16.13;13.07;;;;;;;5.05;100.00;62512.63;5107965;28;20226;-79
2023/12/22 10:11:04;;;;;;;16.20;11.75;;;;;;;5.01;100.00;62514.06;5110979;28;20203;-78
2023/12/22 10:13:31;;;;;;;22.48;13.23;;;;;;;5.00;100.00;62515.06;5107842;28;20198;-81
2023/12/22 10:15:58;;;;;;;17.33;12.48;;;;;;;5.01;100.00;62511.56;5107767;28;20200;-80
2023/12/22 10:18:26;;;;;;;18.58;13.30;;;;;;;5.18;100.00;62534.09;5108328;28;20188;-79
2023/12/22 10:20:53;;;;;;;17.85;12.55;;;;;;;4.96;100.00;62503.34;5109160;28;20216;-77
2023/12/22 10:23:21;;;;;;;22.67;13.57;;;;;;;5.03;100.00;62513.59;5111336;28;20234;-79
2023/12/22 10:25:51;;;;;;;19.05;13.68;;;;;;;5.04;100.00;62514.63;5109648;28;20226;-78
2023/12/22 10:28:21;;;;;;;24.45;13.82;;;;;;;5.25;100.00;62538.25;5108876;28;20188;-79
2023/12/22 10:30:48;;;;;;;19.63;13.07;;;;;;;5.47;100.00;62555.91;5108362;28;20211;-78
2023/12/22 10:33:16;;;;;;;20.65;13.52;;;;;;;5.48;100.00;62561.97;5107066;28;20356;-79
2023/12/22 10:35:43;;;;;;;19.65;14.27;;;;;;;5.57;100.00;62568.72;5106723;28;20250;-78
2023/12/22 10:38:10;;;;;;;18.17;13.60;;;;;;;5.65;100.00;62577.47;5110925;28;20221;-79
2023/12/22 10:40:39;;;;;;;19.88;14.27;;;;;;;5.52;100.00;62566.59;5113651;28;20218;-79
2023/12/22 10:43:06;;;;;;;17.05;13.50;;;;;;;5.37;100.00;62551.16;5110789;28;20218;-79
2023/12/22 10:45:33;;;;;;;27.98;15.98;;;;;;;5.50;100.00;62562.03;5112590;28;20410;-79
2023/12/22 10:48:01;;;;;;;20.17;15.88;;;;;;;5.83;100.00;62593.50;5096321;28;20215;-79
2023/12/22 10:50:28;;;;;;;23.77;14.70;;;;;;;5.98;100.00;62610.97;5097629;28;20223;-78
2023/12/22 10:52:55;;;;;;;21.90;14.45;;;;;;;6.15;100.00;62630.50;5092630;28;20219;-77
2023/12/22 10:55:22;;;;;;;24.88;14.07;;;;;;;6.20;100.00;62638.72;5091633;28;20236;-78
2023/12/22 10:57:51;;;;;;;19.98;13.65;;;;;;;6.01;100.00;62616.06;5092650;28;20256;-78
2023/12/22 11:00:19;;;;;;;22.52;13.73;;;;;;;6.31;100.00;62647.53;5103932;28;20230;-79
2023/12/22 11:02:48;;;;;;;19.95;12.82;;;;;;;6.44;100.00;62660.41;5110510;28;20218;-79
2023/12/22 11:05:16;;;;;;;21.55;13.13;;;;;;;6.48;100.00;62662.00;5109103;28;20219;-79
2023/12/22 11:07:43;;;;;;;19.92;13.80;;;;;;;6.61;100.00;62675.41;5113512;28;20202;-78
2023/12/22 11:10:10;;;;;;;21.30;14.57;;;;;;;6.62;100.00;62674.44;5110278;28;20325;-78
2023/12/22 11:12:37;;;;;;;19.25;14.85;;;;;;;6.79;100.00;62696.50;5111362;28;20217;-79
2023/12/22 11:15:07;;;;;;;23.27;16.45;;;;;;;7.01;100.00;62717.19;5101724;28;20282;-79
2023/12/22 11:17:35;;;;;;;22.02;15.15;;;;;;;7.06;100.00;62723.84;5101518;28;20325;-78
2023/12/22 11:20:02;;;;;;;18.55;13.85;;;;;;;7.18;100.00;62736.72;5089267;28;20221;-78
2023/12/22 11:22:29;;;;;;;23.45;14.13;;;;;;;7.39;100.00;62757.88;5090999;28;20494;-78